createdAt,value
2022-08-28T00:00:43.375Z,23.03
2022-08-28T00:03:12.569Z,23.02
2022-08-28T00:05:40.425Z,22.95
2022-08-28T00:08:13.275Z,23.06
2022-08-28T00:10:41.715Z,22.98
2022-08-28T00:13:15.513Z,23.04
2022-08-28T00:15:42.718Z,22.92
2022-08-28T00:18:09.789Z,23.09
2022-08-28T00:20:38.252Z,23.11
2022-08-28T00:23:06.995Z,23.00
2022-08-28T00:25:35.698Z,22.98
2022-08-28T00:28:08.904Z,22.96
2022-08-28T00:30:48.309Z,22.89
2022-08-28T00:33:20.443Z,22.89
2022-08-28T00:35:49.438Z,22.94
2022-08-28T00:38:19.247Z,22.94
2022-08-28T00:40:50.564Z,22.89
2022-08-28T00:43:45.699Z,22.88
2022-08-28T00:46:21.548Z,22.78
2022-08-28T00:48:49.300Z,22.86
2022-08-28T00:51:38.060Z,22.98
2022-08-28T00:54:07.892Z,22.88
2022-08-28T00:56:37.464Z,22.89
2022-08-28T00:59:09.718Z,22.94
2022-08-28T01:01:39.224Z,22.96
2022-08-28T01:04:06.441Z,22.93
2022-08-28T01:06:35.486Z,22.86
2022-08-28T01:09:03.633Z,22.99
2022-08-28T01:11:31.517Z,22.95
2022-08-28T01:14:01.877Z,22.89
2022-08-28T01:16:33.913Z,22.89
2022-08-28T01:19:04.282Z,22.93
2022-08-28T01:21:36.615Z,22.98
2022-08-28T01:24:10.423Z,22.86
2022-08-28T01:26:38.429Z,22.98
2022-08-28T01:29:08.422Z,22.94
2022-08-28T01:31:37.423Z,22.90
2022-08-28T01:34:05.541Z,22.90
2022-08-28T01:36:33.538Z,22.99
2022-08-28T01:39:10.359Z,22.84
2022-08-28T01:41:42.469Z,22.85
2022-08-28T01:44:09.599Z,22.80
2022-08-28T01:46:36.821Z,22.75
2022-08-28T01:49:04.175Z,22.78
2022-08-28T01:51:34.998Z,22.62
2022-08-28T01:54:06.093Z,22.61
2022-08-28T01:56:33.425Z,22.51
2022-08-28T01:59:07.096Z,22.53
2022-08-28T02:01:34.247Z,22.53
2022-08-28T02:04:01.335Z,22.62
2022-08-28T02:06:28.210Z,22.69
2022-08-28T02:08:55.547Z,22.51
2022-08-28T02:11:24.218Z,22.52
2022-08-28T02:13:54.318Z,22.53
2022-08-28T02:16:23.266Z,22.47
2022-08-28T02:18:50.207Z,22.49
2022-08-28T02:21:17.242Z,22.34
2022-08-28T02:23:45.197Z,22.50
2022-08-28T02:26:14.227Z,22.48
2022-08-28T02:28:42.267Z,22.50
2022-08-28T02:31:10.193Z,22.37
2022-08-28T02:33:45.527Z,22.29
2022-08-28T02:36:14.949Z,22.39
2022-08-28T02:38:42.836Z,22.41
2022-08-28T02:41:10.266Z,22.36
2022-08-28T02:43:37.225Z,22.35
2022-08-28T02:46:05.888Z,22.32
2022-08-28T02:48:36.335Z,22.24
2022-08-28T02:51:09.383Z,22.22
2022-08-28T02:53:36.990Z,22.28
2022-08-28T02:56:05.108Z,22.26
2022-08-28T02:58:33.171Z,22.27
2022-08-28T03:01:02.281Z,22.27
2022-08-28T03:03:33.828Z,22.28
2022-08-28T03:06:03.468Z,22.25
2022-08-28T03:08:31.559Z,22.15
2022-08-28T03:11:00.148Z,22.08
2022-08-28T03:13:27.958Z,22.11
2022-08-28T03:15:55.863Z,22.11
2022-08-28T03:18:25.636Z,22.11
2022-08-28T03:20:54.154Z,22.16
2022-08-28T03:23:26.558Z,22.15
2022-08-28T03:26:10.247Z,22.06
2022-08-28T03:28:43.059Z,22.18
2022-08-28T03:31:17.884Z,22.06
2022-08-28T03:33:45.912Z,22.08
2022-08-28T03:36:18.061Z,22.05
2022-08-28T03:38:44.974Z,22.00
2022-08-28T03:41:18.503Z,21.96
2022-08-28T03:43:45.629Z,21.89
2022-08-28T03:46:20.326Z,21.91
2022-08-28T03:48:47.349Z,21.94
2022-08-28T03:51:29.419Z,21.97
2022-08-28T03:53:59.011Z,21.90
2022-08-28T03:56:28.288Z,21.92
2022-08-28T03:58:59.470Z,21.82
2022-08-28T04:01:26.803Z,21.90
2022-08-28T04:03:54.056Z,21.96
2022-08-28T04:06:20.973Z,21.97
2022-08-28T04:08:48.158Z,21.87
2022-08-28T04:11:15.053Z,21.94
2022-08-28T04:13:41.983Z,21.90
2022-08-28T04:16:12.235Z,21.77
2022-08-28T04:18:42.259Z,21.87
2022-08-28T04:21:19.354Z,21.79
2022-08-28T04:23:47.418Z,21.70
2022-08-28T04:26:20.049Z,21.76
2022-08-28T04:28:48.577Z,21.68
2022-08-28T04:31:16.917Z,21.86
2022-08-28T04:33:43.948Z,21.88
2022-08-28T04:36:17.105Z,21.82
2022-08-28T04:38:44.377Z,21.79
2022-08-28T04:41:15.266Z,21.75
2022-08-28T04:43:42.697Z,21.77
2022-08-28T04:46:14.486Z,21.74
2022-08-28T04:48:42.297Z,21.78
2022-08-28T04:51:12.329Z,21.76
2022-08-28T04:53:39.735Z,21.83
2022-08-28T04:56:09.688Z,21.89
2022-08-28T04:58:38.627Z,21.75
2022-08-28T05:01:18.498Z,21.73
2022-08-28T05:03:57.454Z,21.74
2022-08-28T05:06:27.194Z,21.68
2022-08-28T05:08:57.443Z,21.78
2022-08-28T05:11:34.636Z,21.88
2022-08-28T05:14:09.595Z,21.80
2022-08-28T05:16:52.834Z,21.85
2022-08-28T05:19:21.071Z,21.75
2022-08-28T05:21:48.242Z,21.85
2022-08-28T05:24:15.349Z,21.83
2022-08-28T05:26:42.954Z,21.88
2022-08-28T05:29:11.126Z,21.90
2022-08-28T05:31:40.575Z,21.88
2022-08-28T05:34:08.096Z,21.98
2022-08-28T05:36:37.711Z,21.94
2022-08-28T05:39:09.989Z,21.95
2022-08-28T05:41:40.574Z,22.03
2022-08-28T05:44:10.506Z,22.09
2022-08-28T05:46:41.644Z,22.20
2022-08-28T05:49:10.397Z,22.21
2022-08-28T05:51:41.313Z,22.13
2022-08-28T05:54:08.716Z,22.13
2022-08-28T05:56:38.472Z,22.15
2022-08-28T05:59:07.662Z,22.33
2022-08-28T06:01:40.418Z,22.32
2022-08-28T06:04:15.342Z,22.40
2022-08-28T06:06:42.839Z,22.80
2022-08-28T06:09:19.230Z,23.15
2022-08-28T06:11:47.318Z,23.35
2022-08-28T06:14:17.943Z,23.84
2022-08-28T06:16:52.341Z,24.23
2022-08-28T06:19:20.934Z,24.40
2022-08-28T06:21:48.246Z,24.40
2022-08-28T06:24:15.362Z,24.28
2022-08-28T06:26:42.310Z,23.97
2022-08-28T06:29:13.707Z,23.62
2022-08-28T06:31:41.006Z,23.78
2022-08-28T06:34:09.288Z,23.86
2022-08-28T06:36:41.834Z,24.10
2022-08-28T06:39:11.415Z,24.16
2022-08-28T06:41:42.863Z,24.19
2022-08-28T06:44:18.416Z,24.17
2022-08-28T06:46:46.938Z,24.11
2022-08-28T06:49:14.341Z,23.98
2022-08-28T06:51:41.730Z,23.82
2022-08-28T06:54:09.255Z,23.63
2022-08-28T06:56:36.466Z,23.42
2022-08-28T06:59:03.390Z,23.25
2022-08-28T07:01:34.836Z,23.32
2022-08-28T07:04:07.603Z,23.34
2022-08-28T07:06:40.321Z,23.46
2022-08-28T07:09:11.263Z,23.23
2022-08-28T07:11:39.784Z,23.33
2022-08-28T07:14:07.566Z,23.13
2022-08-28T07:19:10.590Z,23.18
2022-08-28T07:21:41.953Z,23.25
2022-08-28T07:24:11.764Z,23.10
2022-08-28T07:26:41.068Z,23.27
2022-08-28T07:29:10.574Z,23.17
2022-08-28T07:31:41.436Z,23.40
2022-08-28T07:34:10.387Z,23.46
2022-08-28T07:36:38.117Z,23.45
2022-08-28T07:39:06.965Z,23.52
2022-08-28T07:41:37.329Z,23.52
2022-08-28T07:44:22.951Z,23.62
2022-08-28T07:46:59.195Z,23.79
2022-08-28T07:49:27.230Z,23.88
2022-08-28T07:51:54.559Z,23.98
2022-08-28T07:54:23.126Z,24.11
2022-08-28T07:56:51.297Z,24.43
2022-08-28T07:59:19.129Z,24.68
2022-08-28T08:01:49.119Z,25.02
2022-08-28T08:04:19.162Z,25.74
2022-08-28T08:06:46.834Z,26.19
2022-08-28T08:09:16.913Z,26.61
2022-08-28T08:11:44.184Z,27.51
2022-08-28T08:14:12.469Z,27.96
2022-08-28T08:16:43.371Z,27.79
2022-08-28T08:19:14.896Z,27.78
2022-08-28T08:21:48.381Z,27.39
2022-08-28T08:24:21.099Z,27.34
2022-08-28T08:26:59.957Z,27.03
2022-08-28T08:29:32.740Z,26.96
2022-08-28T08:32:08.540Z,27.21
2022-08-28T08:34:40.215Z,27.87
2022-08-28T08:37:07.865Z,30.60
2022-08-28T08:39:36.576Z,33.67
2022-08-28T08:42:08.085Z,36.54
2022-08-28T08:44:43.198Z,38.66
2022-08-28T08:47:40.364Z,39.04
2022-08-28T08:50:33.581Z,40.34
2022-08-28T08:53:37.971Z,40.98
2022-08-28T08:56:06.164Z,42.90
2022-08-28T08:58:44.247Z,44.52
2022-08-28T09:01:55.616Z,44.82
2022-08-28T09:04:53.123Z,45.07
2022-08-28T09:07:37.976Z,47.10
2022-08-28T09:10:11.001Z,47.51
2022-08-28T09:13:06.603Z,48.50
2022-08-28T09:15:40.845Z,49.87
2022-08-28T09:18:19.740Z,49.17
2022-08-28T09:20:51.827Z,47.62
2022-08-28T09:23:19.489Z,46.68
2022-08-28T09:26:01.842Z,44.77
2022-08-28T09:28:37.375Z,43.36
2022-08-28T09:31:38.925Z,42.36
2022-08-28T09:34:30.272Z,42.62
2022-08-28T09:36:59.781Z,45.07
2022-08-28T09:39:31.528Z,46.81
2022-08-28T09:42:41.656Z,46.64
2022-08-28T09:45:21.299Z,46.19
2022-08-28T09:47:59.267Z,43.95
2022-08-28T09:50:55.277Z,41.54
2022-08-28T09:53:22.829Z,40.32
2022-08-28T09:56:10.884Z,38.59
2022-08-28T09:58:52.164Z,37.39
2022-08-28T10:01:53.375Z,36.97
2022-08-28T10:04:38.089Z,37.09
2022-08-28T10:07:41.956Z,38.80
2022-08-28T10:10:23.701Z,40.93
2022-08-28T10:13:04.264Z,42.73
2022-08-28T10:15:52.957Z,43.43
2022-08-28T10:19:00.501Z,42.65
2022-08-28T10:21:53.558Z,39.75
2022-08-28T10:24:49.013Z,39.04
2022-08-28T10:27:42.945Z,38.74
2022-08-28T10:30:21.756Z,39.25
2022-08-28T10:33:10.038Z,38.38
2022-08-28T10:35:50.908Z,37.51
2022-08-28T10:38:30.387Z,35.84
2022-08-28T10:41:04.474Z,34.61
2022-08-28T10:43:43.488Z,34.42
2022-08-28T10:46:21.319Z,34.06
2022-08-28T10:49:20.839Z,33.11
2022-08-28T10:51:54.569Z,33.02
2022-08-28T10:54:32.123Z,32.19
2022-08-28T10:57:10.465Z,32.24
2022-08-28T10:59:41.870Z,32.41
2022-08-28T11:02:13.365Z,32.10
2022-08-28T11:04:41.173Z,31.93
2022-08-28T11:07:20.454Z,31.58
2022-08-28T11:09:49.166Z,31.22
2022-08-28T11:12:19.830Z,31.01
2022-08-28T11:14:50.766Z,30.51
2022-08-28T11:17:27.578Z,29.40
2022-08-28T11:20:16.116Z,29.43
2022-08-28T11:23:17.285Z,29.36
2022-08-28T11:25:58.687Z,29.15
2022-08-28T11:28:25.821Z,28.99
2022-08-28T11:30:58.443Z,28.73
2022-08-28T11:33:47.687Z,28.83
2022-08-28T11:36:20.516Z,28.69
2022-08-28T11:38:57.010Z,28.79
2022-08-28T11:41:38.486Z,28.54
2022-08-28T11:44:12.591Z,28.46
2022-08-28T11:46:50.624Z,28.35
2022-08-28T11:49:26.429Z,28.28
2022-08-28T11:52:49.829Z,28.32
2022-08-28T11:55:46.784Z,28.40
2022-08-28T11:58:36.403Z,28.59
2022-08-28T12:01:11.258Z,28.73
2022-08-28T12:04:08.085Z,28.96
2022-08-28T12:07:08.777Z,28.62
2022-08-28T12:09:38.724Z,28.51
2022-08-28T12:12:20.552Z,28.68
2022-08-28T12:14:47.289Z,28.86
2022-08-28T12:17:31.247Z,28.96
2022-08-28T12:20:30.220Z,29.22
2022-08-28T12:23:01.373Z,28.78
2022-08-28T12:25:40.737Z,28.79
2022-08-28T12:28:19.096Z,28.96
2022-08-28T12:31:11.689Z,29.07
2022-08-28T12:33:58.527Z,29.04
2022-08-28T12:36:26.801Z,28.96
2022-08-28T12:38:57.465Z,28.78
2022-08-28T12:41:24.996Z,28.51
2022-08-28T12:43:57.400Z,28.40
2022-08-28T12:46:32.856Z,28.18
2022-08-28T12:49:06.396Z,28.29
2022-08-28T12:51:38.362Z,28.14
2022-08-28T12:54:08.364Z,28.17
2022-08-28T12:56:38.380Z,28.19
2022-08-28T12:59:36.149Z,28.08
2022-08-28T13:02:24.375Z,28.15
2022-08-28T13:05:16.574Z,28.11
2022-08-28T13:07:50.310Z,28.07
2022-08-28T13:10:38.239Z,28.00
2022-08-28T13:13:21.812Z,27.94
2022-08-28T13:15:53.391Z,28.10
2022-08-28T13:19:12.741Z,27.99
2022-08-28T13:21:51.801Z,28.04
2022-08-28T13:24:24.110Z,27.98
2022-08-28T13:27:21.858Z,27.91
2022-08-28T13:30:08.933Z,27.95
2022-08-28T13:32:39.652Z,28.00
2022-08-28T13:35:18.358Z,27.96
2022-08-28T13:37:50.278Z,27.88
2022-08-28T13:40:55.816Z,27.99
2022-08-28T13:43:11.418Z,27.96
2022-08-28T13:45:44.673Z,28.00
2022-08-28T13:48:25.053Z,28.03
2022-08-28T13:51:10.683Z,27.99
2022-08-28T13:53:39.113Z,27.99
2022-08-28T13:56:06.677Z,28.02
2022-08-28T13:58:33.631Z,28.07
2022-08-28T14:01:01.364Z,28.21
2022-08-28T14:03:37.658Z,28.33
2022-08-28T14:06:11.112Z,28.11
2022-08-28T14:08:40.313Z,28.08
2022-08-28T14:11:07.893Z,28.16
2022-08-28T14:13:35.872Z,28.19
2022-08-28T14:16:08.063Z,28.06
2022-08-28T14:18:35.380Z,27.98
2022-08-28T14:21:06.236Z,28.07
2022-08-28T14:23:35.919Z,28.19
2022-08-28T14:26:05.677Z,28.11
2022-08-28T14:28:32.883Z,28.14
2022-08-28T14:30:59.946Z,28.09
2022-08-28T14:33:26.862Z,27.96
2022-08-28T14:35:55.456Z,27.91
2022-08-28T14:38:22.353Z,27.94
2022-08-28T14:40:52.397Z,28.11
2022-08-28T14:43:22.439Z,28.00
2022-08-28T14:45:51.699Z,27.93
2022-08-28T14:48:19.306Z,27.96
2022-08-28T14:50:48.281Z,27.97
2022-08-28T14:53:16.236Z,28.00
2022-08-28T14:55:46.997Z,28.14
2022-08-28T14:58:15.419Z,28.26
2022-08-28T15:00:46.577Z,28.05
2022-08-28T15:03:13.947Z,28.08
2022-08-28T15:05:44.357Z,28.19
2022-08-28T15:08:16.701Z,28.10
2022-08-28T15:10:44.983Z,27.92
2022-08-28T15:13:12.752Z,27.94
2022-08-28T15:15:42.173Z,27.78
2022-08-28T15:18:10.872Z,27.83
2022-08-28T15:20:46.287Z,27.73
2022-08-28T15:23:15.222Z,27.75
2022-08-28T15:25:45.189Z,27.70
2022-08-28T15:28:12.394Z,27.61
2022-08-28T15:30:41.034Z,27.45
2022-08-28T15:33:07.911Z,27.48
2022-08-28T15:35:37.055Z,27.30
2022-08-28T15:38:05.756Z,27.22
2022-08-28T15:40:52.579Z,27.26
2022-08-28T15:43:20.481Z,27.20
2022-08-28T15:45:56.737Z,27.31
2022-08-28T15:48:23.632Z,27.37
2022-08-28T15:50:51.308Z,27.38
2022-08-28T15:53:22.700Z,27.30
2022-08-28T15:55:50.415Z,27.24
2022-08-28T15:58:17.470Z,27.19
2022-08-28T16:00:44.512Z,27.19
2022-08-28T16:03:11.577Z,27.08
2022-08-28T16:05:39.577Z,27.09
2022-08-28T16:08:09.023Z,27.11
2022-08-28T16:10:36.240Z,27.13
2022-08-28T16:13:04.654Z,26.92
2022-08-28T16:15:31.991Z,26.72
2022-08-28T16:17:58.840Z,27.09
2022-08-28T16:20:25.742Z,27.26
2022-08-28T16:22:52.962Z,27.17
2022-08-28T16:25:19.876Z,27.21
2022-08-28T16:27:46.719Z,27.21
2022-08-28T16:30:15.660Z,27.03
2022-08-28T16:32:46.703Z,27.05
2022-08-28T16:35:15.914Z,27.05
2022-08-28T16:37:43.614Z,27.00
2022-08-28T16:40:12.031Z,26.97
2022-08-28T16:42:41.957Z,26.90
2022-08-28T16:45:18.184Z,26.94
2022-08-28T16:47:45.063Z,26.92
2022-08-28T16:50:13.535Z,26.84
2022-08-28T16:52:40.552Z,26.94
2022-08-28T16:55:09.988Z,26.82
2022-08-28T16:57:37.408Z,26.85
2022-08-28T17:00:14.183Z,26.84
2022-08-28T17:02:42.646Z,26.88
2022-08-28T17:05:11.387Z,26.75
2022-08-28T17:07:39.763Z,26.70
2022-08-28T17:10:08.522Z,26.71
2022-08-28T17:12:35.421Z,26.59
2022-08-28T17:15:02.698Z,26.61
2022-08-28T17:17:29.629Z,26.72
2022-08-28T17:19:57.730Z,26.62
2022-08-28T17:22:33.835Z,26.62
2022-08-28T17:25:13.582Z,26.66
2022-08-28T17:27:41.306Z,26.61
2022-08-28T17:30:10.480Z,26.52
2022-08-28T17:32:37.461Z,26.44
2022-08-28T17:35:05.405Z,26.49
2022-08-28T17:37:32.594Z,26.41
2022-08-28T17:39:59.607Z,26.32
2022-08-28T17:42:26.515Z,26.39
2022-08-28T17:44:53.392Z,26.30
2022-08-28T17:47:26.392Z,26.25
2022-08-28T17:50:00.239Z,26.22
2022-08-28T17:52:28.541Z,26.25
2022-08-28T17:54:55.648Z,26.30
2022-08-28T17:57:24.132Z,26.29
2022-08-28T17:59:51.409Z,26.32
2022-08-28T18:02:19.131Z,26.25
2022-08-28T18:04:46.047Z,26.14
2022-08-28T18:07:12.943Z,26.08
2022-08-28T18:09:40.009Z,26.04
2022-08-28T18:12:12.464Z,26.00
2022-08-28T18:14:40.900Z,26.01
2022-08-28T18:17:10.653Z,25.96
2022-08-28T18:19:40.104Z,25.83
2022-08-28T18:22:12.913Z,25.86
2022-08-28T18:24:40.846Z,25.76
2022-08-28T18:27:08.709Z,25.68
2022-08-28T18:29:37.218Z,25.64
2022-08-28T18:32:05.616Z,25.56
2022-08-28T18:34:32.582Z,25.61
2022-08-28T18:37:00.786Z,25.53
2022-08-28T18:39:29.906Z,25.49
2022-08-28T18:41:58.086Z,25.44
2022-08-28T18:44:25.176Z,25.44
2022-08-28T18:46:52.444Z,25.37
2022-08-28T18:49:19.689Z,25.35
2022-08-28T18:51:46.796Z,25.39
2022-08-28T18:54:18.917Z,25.31
2022-08-28T18:56:47.581Z,25.34
2022-08-28T18:59:16.702Z,25.26
2022-08-28T19:01:43.799Z,25.25
2022-08-28T19:04:10.782Z,25.35
2022-08-28T19:06:37.712Z,25.25
2022-08-28T19:09:05.550Z,25.14
2022-08-28T19:11:32.755Z,25.16
2022-08-28T19:14:03.886Z,25.14
2022-08-28T19:16:32.216Z,25.08
2022-08-28T19:18:59.190Z,25.02
2022-08-28T19:21:29.021Z,25.00
2022-08-28T19:23:56.496Z,24.99
2022-08-28T19:26:26.045Z,24.95
2022-08-28T19:28:53.712Z,24.96
2022-08-28T19:31:20.813Z,24.95
2022-08-28T19:33:48.068Z,24.88
2022-08-28T19:36:15.536Z,24.90
2022-08-28T19:38:43.041Z,24.84
2022-08-28T19:41:12.061Z,24.75
2022-08-28T19:43:42.887Z,24.76
2022-08-28T19:46:18.718Z,24.72
2022-08-28T19:48:49.346Z,24.70
2022-08-28T19:51:17.620Z,24.65
2022-08-28T19:53:59.049Z,24.66
2022-08-28T19:56:32.296Z,24.80
2022-08-28T19:59:01.829Z,24.59
2022-08-28T20:01:31.822Z,24.64
2022-08-28T20:04:00.127Z,24.56
2022-08-28T20:06:28.661Z,24.53
2022-08-28T20:08:55.655Z,24.54
2022-08-28T20:11:29.053Z,24.62
2022-08-28T20:14:04.879Z,24.55
2022-08-28T20:16:37.146Z,24.41
2022-08-28T20:19:07.750Z,24.37
2022-08-28T20:21:38.213Z,24.35
2022-08-28T20:24:09.625Z,24.40
2022-08-28T20:26:36.959Z,24.41
2022-08-28T20:29:06.698Z,24.38
2022-08-28T20:31:34.770Z,24.45
2022-08-28T20:34:01.683Z,24.42
2022-08-28T20:36:28.575Z,24.28
2022-08-28T20:38:55.508Z,24.21
2022-08-28T20:41:22.797Z,24.32
2022-08-28T20:43:50.082Z,24.16
2022-08-28T20:46:17.318Z,24.14
2022-08-28T20:48:44.423Z,23.88
2022-08-28T20:51:11.883Z,23.91
2022-08-28T20:53:39.093Z,23.81
2022-08-28T20:56:09.391Z,23.73
2022-08-28T20:58:37.283Z,23.73
2022-08-28T21:01:05.601Z,23.69
2022-08-28T21:03:32.745Z,23.69
2022-08-28T21:05:59.686Z,23.63
2022-08-28T21:08:26.570Z,23.48
2022-08-28T21:10:53.511Z,23.43
2022-08-28T21:13:20.597Z,23.27
2022-08-28T21:15:47.682Z,23.27
2022-08-28T21:18:14.926Z,23.30
2022-08-28T21:20:42.224Z,23.38
2022-08-28T21:23:10.458Z,23.25
2022-08-28T21:25:40.065Z,23.25
2022-08-28T21:28:06.972Z,23.11
2022-08-28T21:30:34.279Z,23.17
2022-08-28T21:33:01.195Z,23.08
2022-08-28T21:35:28.307Z,22.97
2022-08-28T21:37:55.283Z,22.86
2022-08-28T21:40:22.293Z,22.80
2022-08-28T21:42:49.326Z,22.87
2022-08-28T21:45:16.202Z,22.76
2022-08-28T21:47:43.347Z,22.84
2022-08-28T21:50:11.488Z,22.85
2022-08-28T21:52:38.454Z,22.88
2022-08-28T21:55:11.307Z,22.84
2022-08-28T21:57:38.493Z,22.87
2022-08-28T22:00:18.819Z,22.81
2022-08-28T22:02:46.499Z,22.65
2022-08-28T22:05:13.918Z,22.59
2022-08-28T22:07:40.968Z,22.63
2022-08-28T22:10:09.632Z,22.67
2022-08-28T22:12:36.584Z,22.55
2022-08-28T22:15:06.039Z,22.48
2022-08-28T22:17:33.025Z,22.36
2022-08-28T22:20:00.002Z,22.49
2022-08-28T22:22:45.269Z,22.49
2022-08-28T22:25:12.298Z,22.44
2022-08-28T22:27:39.180Z,22.41
2022-08-28T22:30:06.740Z,22.39
2022-08-28T22:32:33.634Z,22.40
2022-08-28T22:35:00.842Z,22.38
2022-08-28T22:37:27.825Z,21.97
2022-08-28T22:39:54.825Z,22.11
2022-08-28T22:42:22.077Z,21.86
2022-08-28T22:44:48.951Z,22.10
2022-08-28T22:47:15.870Z,22.14
2022-08-28T22:49:45.978Z,22.09
2022-08-28T22:52:13.006Z,22.05
2022-08-28T22:54:39.929Z,21.95
2022-08-28T22:57:06.896Z,21.91
2022-08-28T22:59:35.078Z,21.91
2022-08-28T23:02:03.657Z,21.83
2022-08-28T23:04:31.039Z,21.98
2022-08-28T23:06:57.976Z,21.97
2022-08-28T23:09:24.879Z,21.98
2022-08-28T23:11:51.865Z,21.83
2022-08-28T23:14:19.254Z,21.82
2022-08-28T23:16:46.382Z,21.67
2022-08-28T23:19:13.750Z,21.82
2022-08-28T23:21:43.899Z,21.93
2022-08-28T23:24:15.967Z,21.83
2022-08-28T23:26:44.317Z,21.84
2022-08-28T23:29:12.335Z,21.84
2022-08-28T23:31:39.898Z,21.78
2022-08-28T23:34:07.528Z,21.69
2022-08-28T23:36:36.032Z,21.66
2022-08-28T23:39:04.836Z,21.67
2022-08-28T23:41:33.218Z,21.62
2022-08-28T23:44:02.404Z,21.55
2022-08-28T23:46:31.140Z,21.62
2022-08-28T23:48:58.080Z,21.58
2022-08-28T23:51:24.947Z,21.55
2022-08-28T23:53:52.487Z,21.53
2022-08-28T23:56:19.364Z,21.48
2022-08-28T23:58:46.279Z,21.30
